sensor_id;sensor_type;location;lat;lon;timestamp;P1;durP1;ratioP1;P2;durP2;ratioP2
28988;SDS011;16089;59.952;10.818;2023-02-01T00:01:46;21.30;;;8.57;;
28988;SDS011;16089;59.952;10.818;2023-02-01T00:04:13;19.08;;;8.57;;
28988;SDS011;16089;59.952;10.818;2023-02-01T00:06:39;20.52;;;9.20;;
28988;SDS011;16089;59.952;10.818;2023-02-01T00:09:07;15.30;;;7.97;;
28988;SDS011;16089;59.952;10.818;2023-02-01T00:11:33;17.70;;;7.97;;
28988;SDS011;16089;59.952;10.818;2023-02-01T00:14:00;17.00;;;8.82;;
28988;SDS011;16089;59.952;10.818;2023-02-01T00:16:27;20.42;;;8.90;;
28988;SDS011;16089;59.952;10.818;2023-02-01T00:18:57;20.00;;;8.73;;
28988;SDS011;16089;59.952;10.818;2023-02-01T00:21:23;19.05;;;8.88;;
28988;SDS011;16089;59.952;10.818;2023-02-01T00:23:50;21.83;;;8.88;;
28988;SDS011;16089;59.952;10.818;2023-02-01T00:26:17;17.48;;;8.23;;
28988;SDS011;16089;59.952;10.818;2023-02-01T00:28:44;20.10;;;9.18;;
28988;SDS011;16089;59.952;10.818;2023-02-01T00:31:10;18.70;;;8.75;;
28988;SDS011;16089;59.952;10.818;2023-02-01T00:33:36;20.48;;;8.48;;
28988;SDS011;16089;59.952;10.818;2023-02-01T00:36:05;19.98;;;9.27;;
28988;SDS011;16089;59.952;10.818;2023-02-01T00:38:32;19.15;;;9.10;;
28988;SDS011;16089;59.952;10.818;2023-02-01T00:41:01;19.52;;;9.73;;
28988;SDS011;16089;59.952;10.818;2023-02-01T00:43:28;19.17;;;9.57;;
28988;SDS011;16089;59.952;10.818;2023-02-01T00:45:54;20.52;;;10.15;;
28988;SDS011;16089;59.952;10.818;2023-02-01T00:48:21;22.10;;;10.80;;
28988;SDS011;16089;59.952;10.818;2023-02-01T00:50:47;22.35;;;11.40;;
28988;SDS011;16089;59.952;10.818;2023-02-01T00:53:15;33.53;;;14.32;;
28988;SDS011;16089;59.952;10.818;2023-02-01T00:55:44;22.15;;;11.45;;
28988;SDS011;16089;59.952;10.818;2023-02-01T00:58:10;26.00;;;12.57;;
28988;SDS011;16089;59.952;10.818;2023-02-01T01:00:36;32.78;;;13.93;;
28988;SDS011;16089;59.952;10.818;2023-02-01T01:03:03;31.08;;;13.07;;
28988;SDS011;16089;59.952;10.818;2023-02-01T01:05:42;28.77;;;13.75;;
28988;SDS011;16089;59.952;10.818;2023-02-01T01:08:08;30.55;;;12.77;;
28988;SDS011;16089;59.952;10.818;2023-02-01T01:10:36;50.75;;;16.45;;
28988;SDS011;16089;59.952;10.818;2023-02-01T01:13:02;35.42;;;15.75;;
28988;SDS011;16089;59.952;10.818;2023-02-01T01:15:29;36.00;;;15.65;;
28988;SDS011;16089;59.952;10.818;2023-02-01T01:17:56;34.92;;;14.73;;
28988;SDS011;16089;59.952;10.818;2023-02-01T01:20:22;32.22;;;15.63;;
28988;SDS011;16089;59.952;10.818;2023-02-01T01:22:48;32.58;;;14.63;;
28988;SDS011;16089;59.952;10.818;2023-02-01T01:25:15;33.33;;;14.02;;
28988;SDS011;16089;59.952;10.818;2023-02-01T01:27:42;32.17;;;15.70;;
28988;SDS011;16089;59.952;10.818;2023-02-01T01:30:09;32.25;;;14.00;;
28988;SDS011;16089;59.952;10.818;2023-02-01T01:32:36;34.50;;;15.73;;
28988;SDS011;16089;59.952;10.818;2023-02-01T01:35:02;34.67;;;15.25;;
28988;SDS011;16089;59.952;10.818;2023-02-01T01:37:29;32.38;;;15.15;;
28988;SDS011;16089;59.952;10.818;2023-02-01T01:39:55;32.75;;;16.30;;
28988;SDS011;16089;59.952;10.818;2023-02-01T01:42:23;36.95;;;15.05;;
28988;SDS011;16089;59.952;10.818;2023-02-01T01:45:01;30.00;;;15.05;;
28988;SDS011;16089;59.952;10.818;2023-02-01T01:47:30;36.40;;;15.27;;
28988;SDS011;16089;59.952;10.818;2023-02-01T01:49:57;33.95;;;15.45;;
28988;SDS011;16089;59.952;10.818;2023-02-01T01:52:24;33.78;;;15.95;;
28988;SDS011;16089;59.952;10.818;2023-02-01T01:54:51;30.02;;;15.10;;
28988;SDS011;16089;59.952;10.818;2023-02-01T01:57:19;30.35;;;16.70;;
28988;SDS011;16089;59.952;10.818;2023-02-01T01:59:46;31.58;;;15.68;;
28988;SDS011;16089;59.952;10.818;2023-02-01T02:02:15;28.38;;;15.35;;
28988;SDS011;16089;59.952;10.818;2023-02-01T02:04:42;29.45;;;14.98;;
28988;SDS011;16089;59.952;10.818;2023-02-01T02:07:09;31.92;;;14.65;;
28988;SDS011;16089;59.952;10.818;2023-02-01T02:09:37;27.58;;;13.65;;
28988;SDS011;16089;59.952;10.818;2023-02-01T02:12:04;29.73;;;14.88;;
28988;SDS011;16089;59.952;10.818;2023-02-01T02:14:30;33.38;;;16.58;;
28988;SDS011;16089;59.952;10.818;2023-02-01T02:19:48;29.33;;;14.45;;
28988;SDS011;16089;59.952;10.818;2023-02-01T02:25:28;30.58;;;14.95;;
28988;SDS011;16089;59.952;10.818;2023-02-01T02:27:58;32.80;;;16.20;;
28988;SDS011;16089;59.952;10.818;2023-02-01T02:30:37;31.25;;;15.88;;
28988;SDS011;16089;59.952;10.818;2023-02-01T02:35:53;38.80;;;17.13;;
28988;SDS011;16089;59.952;10.818;2023-02-01T02:38:23;31.95;;;15.20;;
28988;SDS011;16089;59.952;10.818;2023-02-01T02:40:55;28.00;;;14.60;;
28988;SDS011;16089;59.952;10.818;2023-02-01T02:43:27;30.85;;;14.43;;
28988;SDS011;16089;59.952;10.818;2023-02-01T02:46:16;29.30;;;14.18;;
28988;SDS011;16089;59.952;10.818;2023-02-01T02:49:03;34.17;;;14.70;;
28988;SDS011;16089;59.952;10.818;2023-02-01T02:51:34;28.45;;;14.27;;
28988;SDS011;16089;59.952;10.818;2023-02-01T02:54:21;34.28;;;14.63;;
28988;SDS011;16089;59.952;10.818;2023-02-01T02:57:19;21.48;;;11.63;;
28988;SDS011;16089;59.952;10.818;2023-02-01T03:00:04;32.78;;;15.13;;
28988;SDS011;16089;59.952;10.818;2023-02-01T03:02:50;26.15;;;14.35;;
28988;SDS011;16089;59.952;10.818;2023-02-01T03:05:34;31.67;;;14.27;;
28988;SDS011;16089;59.952;10.818;2023-02-01T03:08:09;29.70;;;14.85;;
28988;SDS011;16089;59.952;10.818;2023-02-01T03:10:39;30.42;;;14.65;;
28988;SDS011;16089;59.952;10.818;2023-02-01T03:13:09;30.17;;;14.85;;
28988;SDS011;16089;59.952;10.818;2023-02-01T03:15:37;30.13;;;14.57;;
28988;SDS011;16089;59.952;10.818;2023-02-01T03:18:05;32.35;;;14.32;;
28988;SDS011;16089;59.952;10.818;2023-02-01T03:20:32;33.08;;;15.07;;
28988;SDS011;16089;59.952;10.818;2023-02-01T03:22:59;33.45;;;15.30;;
28988;SDS011;16089;59.952;10.818;2023-02-01T03:25:29;35.97;;;15.93;;
28988;SDS011;16089;59.952;10.818;2023-02-01T03:27:57;31.48;;;15.50;;
28988;SDS011;16089;59.952;10.818;2023-02-01T03:30:27;30.13;;;14.20;;
28988;SDS011;16089;59.952;10.818;2023-02-01T03:32:55;35.58;;;14.70;;
28988;SDS011;16089;59.952;10.818;2023-02-01T03:35:26;31.17;;;15.38;;
28988;SDS011;16089;59.952;10.818;2023-02-01T03:37:53;34.60;;;15.60;;
28988;SDS011;16089;59.952;10.818;2023-02-01T03:40:22;29.83;;;14.52;;
28988;SDS011;16089;59.952;10.818;2023-02-01T03:42:51;32.83;;;15.45;;
28988;SDS011;16089;59.952;10.818;2023-02-01T03:45:22;28.75;;;14.57;;
28988;SDS011;16089;59.952;10.818;2023-02-01T03:47:50;31.23;;;14.75;;
28988;SDS011;16089;59.952;10.818;2023-02-01T03:50:19;33.70;;;15.20;;
28988;SDS011;16089;59.952;10.818;2023-02-01T03:52:48;34.20;;;15.88;;
28988;SDS011;16089;59.952;10.818;2023-02-01T03:55:17;27.17;;;14.20;;
28988;SDS011;16089;59.952;10.818;2023-02-01T03:57:46;26.88;;;13.27;;
28988;SDS011;16089;59.952;10.818;2023-02-01T04:00:18;27.25;;;13.80;;
28988;SDS011;16089;59.952;10.818;2023-02-01T04:02:46;33.92;;;16.40;;
28988;SDS011;16089;59.952;10.818;2023-02-01T04:05:13;33.35;;;14.90;;
28988;SDS011;16089;59.952;10.818;2023-02-01T04:07:39;27.15;;;13.48;;
28988;SDS011;16089;59.952;10.818;2023-02-01T04:10:06;30.30;;;16.40;;
28988;SDS011;16089;59.952;10.818;2023-02-01T04:12:33;37.35;;;16.40;;
28988;SDS011;16089;59.952;10.818;2023-02-01T04:14:59;35.83;;;17.00;;
28988;SDS011;16089;59.952;10.818;2023-02-01T04:17:27;31.98;;;15.65;;
28988;SDS011;16089;59.952;10.818;2023-02-01T04:19:53;32.92;;;16.00;;
28988;SDS011;16089;59.952;10.818;2023-02-01T04:22:20;36.17;;;16.60;;
28988;SDS011;16089;59.952;10.818;2023-02-01T04:24:46;37.50;;;18.25;;
28988;SDS011;16089;59.952;10.818;2023-02-01T04:27:12;37.70;;;17.08;;
28988;SDS011;16089;59.952;10.818;2023-02-01T04:29:39;32.15;;;16.52;;
28988;SDS011;16089;59.952;10.818;2023-02-01T04:32:06;36.67;;;17.15;;
28988;SDS011;16089;59.952;10.818;2023-02-01T04:34:33;33.70;;;16.60;;
28988;SDS011;16089;59.952;10.818;2023-02-01T04:37:00;30.50;;;14.95;;
28988;SDS011;16089;59.952;10.818;2023-02-01T04:39:26;31.02;;;15.98;;
28988;SDS011;16089;59.952;10.818;2023-02-01T04:41:52;33.70;;;16.23;;
28988;SDS011;16089;59.952;10.818;2023-02-01T04:44:19;33.05;;;16.33;;
28988;SDS011;16089;59.952;10.818;2023-02-01T04:46:46;38.40;;;17.83;;
28988;SDS011;16089;59.952;10.818;2023-02-01T04:49:12;33.20;;;16.77;;
28988;SDS011;16089;59.952;10.818;2023-02-01T04:51:40;44.35;;;19.60;;
28988;SDS011;16089;59.952;10.818;2023-02-01T04:54:07;30.13;;;15.75;;
28988;SDS011;16089;59.952;10.818;2023-02-01T04:56:36;38.47;;;18.02;;
28988;SDS011;16089;59.952;10.818;2023-02-01T04:59:02;33.08;;;16.52;;
28988;SDS011;16089;59.952;10.818;2023-02-01T05:01:29;41.63;;;17.15;;
28988;SDS011;16089;59.952;10.818;2023-02-01T05:03:56;38.33;;;17.02;;
28988;SDS011;16089;59.952;10.818;2023-02-01T05:06:22;30.63;;;15.85;;
28988;SDS011;16089;59.952;10.818;2023-02-01T05:08:50;31.67;;;15.50;;
28988;SDS011;16089;59.952;10.818;2023-02-01T05:11:16;31.35;;;15.20;;
28988;SDS011;16089;59.952;10.818;2023-02-01T05:13:57;31.48;;;15.82;;
28988;SDS011;16089;59.952;10.818;2023-02-01T05:16:23;31.77;;;14.98;;
28988;SDS011;16089;59.952;10.818;2023-02-01T05:18:50;25.73;;;12.07;;
28988;SDS011;16089;59.952;10.818;2023-02-01T05:21:16;28.13;;;13.40;;
28988;SDS011;16089;59.952;10.818;2023-02-01T05:23:42;24.23;;;11.93;;
28988;SDS011;16089;59.952;10.818;2023-02-01T05:26:27;25.75;;;11.73;;
28988;SDS011;16089;59.952;10.818;2023-02-01T05:28:54;28.85;;;13.45;;
28988;SDS011;16089;59.952;10.818;2023-02-01T05:31:20;26.60;;;12.18;;
28988;SDS011;16089;59.952;10.818;2023-02-01T05:33:47;28.08;;;12.57;;
28988;SDS011;16089;59.952;10.818;2023-02-01T05:36:13;30.08;;;13.05;;
28988;SDS011;16089;59.952;10.818;2023-02-01T05:38:39;28.85;;;12.10;;
28988;SDS011;16089;59.952;10.818;2023-02-01T05:41:06;30.88;;;11.43;;
28988;SDS011;16089;59.952;10.818;2023-02-01T05:43:34;40.60;;;15.35;;
28988;SDS011;16089;59.952;10.818;2023-02-01T05:46:00;27.35;;;11.73;;
28988;SDS011;16089;59.952;10.818;2023-02-01T05:48:27;34.55;;;12.88;;
28988;SDS011;16089;59.952;10.818;2023-02-01T05:50:53;27.48;;;11.57;;
28988;SDS011;16089;59.952;10.818;2023-02-01T05:53:19;27.85;;;11.30;;
28988;SDS011;16089;59.952;10.818;2023-02-01T05:55:46;30.00;;;11.43;;
28988;SDS011;16089;59.952;10.818;2023-02-01T05:58:12;25.98;;;11.10;;
28988;SDS011;16089;59.952;10.818;2023-02-01T06:00:40;28.25;;;10.60;;
28988;SDS011;16089;59.952;10.818;2023-02-01T06:03:07;23.23;;;9.98;;
28988;SDS011;16089;59.952;10.818;2023-02-01T06:05:33;28.08;;;10.75;;
28988;SDS011;16089;59.952;10.818;2023-02-01T06:08:00;30.08;;;10.90;;
28988;SDS011;16089;59.952;10.818;2023-02-01T06:10:26;26.38;;;10.15;;
28988;SDS011;16089;59.952;10.818;2023-02-01T06:12:52;21.23;;;9.07;;
28988;SDS011;16089;59.952;10.818;2023-02-01T06:15:19;26.50;;;9.60;;
28988;SDS011;16089;59.952;10.818;2023-02-01T06:17:46;28.98;;;9.73;;
28988;SDS011;16089;59.952;10.818;2023-02-01T06:20:13;21.92;;;8.32;;
28988;SDS011;16089;59.952;10.818;2023-02-01T06:22:40;23.27;;;9.15;;
28988;SDS011;16089;59.952;10.818;2023-02-01T06:25:08;20.48;;;8.82;;
28988;SDS011;16089;59.952;10.818;2023-02-01T06:27:34;18.73;;;8.00;;
28988;SDS011;16089;59.952;10.818;2023-02-01T06:30:01;22.25;;;8.20;;
28988;SDS011;16089;59.952;10.818;2023-02-01T06:32:27;19.10;;;7.38;;
28988;SDS011;16089;59.952;10.818;2023-02-01T06:34:55;21.15;;;7.30;;
28988;SDS011;16089;59.952;10.818;2023-02-01T06:37:22;19.30;;;7.40;;
28988;SDS011;16089;59.952;10.818;2023-02-01T06:39:49;20.92;;;8.23;;
28988;SDS011;16089;59.952;10.818;2023-02-01T06:42:16;17.35;;;7.57;;
28988;SDS011;16089;59.952;10.818;2023-02-01T06:44:42;14.90;;;7.15;;
28988;SDS011;16089;59.952;10.818;2023-02-01T06:47:09;13.32;;;6.47;;
28988;SDS011;16089;59.952;10.818;2023-02-01T06:49:35;14.90;;;5.57;;
28988;SDS011;16089;59.952;10.818;2023-02-01T06:52:03;13.35;;;5.25;;
28988;SDS011;16089;59.952;10.818;2023-02-01T06:54:29;14.02;;;5.40;;
28988;SDS011;16089;59.952;10.818;2023-02-01T06:56:58;13.25;;;5.28;;
28988;SDS011;16089;59.952;10.818;2023-02-01T06:59:25;12.63;;;5.75;;
28988;SDS011;16089;59.952;10.818;2023-02-01T07:01:51;14.85;;;5.75;;
28988;SDS011;16089;59.952;10.818;2023-02-01T07:04:17;15.50;;;5.93;;
28988;SDS011;16089;59.952;10.818;2023-02-01T07:06:44;18.02;;;6.05;;
28988;SDS011;16089;59.952;10.818;2023-02-01T07:09:11;12.77;;;5.57;;
28988;SDS011;16089;59.952;10.818;2023-02-01T07:11:38;15.23;;;5.72;;
28988;SDS011;16089;59.952;10.818;2023-02-01T07:14:08;12.10;;;5.13;;
28988;SDS011;16089;59.952;10.818;2023-02-01T07:16:34;10.65;;;4.20;;
28988;SDS011;16089;59.952;10.818;2023-02-01T07:19:00;11.25;;;4.22;;
28988;SDS011;16089;59.952;10.818;2023-02-01T07:21:27;9.20;;;3.92;;
28988;SDS011;16089;59.952;10.818;2023-02-01T07:23:53;9.10;;;4.00;;
28988;SDS011;16089;59.952;10.818;2023-02-01T07:26:21;10.35;;;4.40;;
28988;SDS011;16089;59.952;10.818;2023-02-01T07:28:47;8.45;;;3.65;;
28988;SDS011;16089;59.952;10.818;2023-02-01T07:31:14;8.10;;;3.42;;
28988;SDS011;16089;59.952;10.818;2023-02-01T07:33:43;8.32;;;3.30;;
28988;SDS011;16089;59.952;10.818;2023-02-01T07:36:10;9.98;;;3.28;;
28988;SDS011;16089;59.952;10.818;2023-02-01T07:38:37;7.90;;;3.05;;
28988;SDS011;16089;59.952;10.818;2023-02-01T07:41:04;8.52;;;3.08;;
28988;SDS011;16089;59.952;10.818;2023-02-01T07:43:32;7.57;;;3.25;;
28988;SDS011;16089;59.952;10.818;2023-02-01T07:45:59;6.72;;;2.65;;
28988;SDS011;16089;59.952;10.818;2023-02-01T07:48:25;6.47;;;2.60;;
28988;SDS011;16089;59.952;10.818;2023-02-01T07:50:56;9.70;;;3.55;;
28988;SDS011;16089;59.952;10.818;2023-02-01T07:53:23;6.45;;;2.58;;
28988;SDS011;16089;59.952;10.818;2023-02-01T07:55:49;4.97;;;2.17;;
28988;SDS011;16089;59.952;10.818;2023-02-01T07:58:15;5.28;;;2.30;;
28988;SDS011;16089;59.952;10.818;2023-02-01T08:00:43;8.07;;;2.42;;
28988;SDS011;16089;59.952;10.818;2023-02-01T08:05:53;9.00;;;2.50;;
28988;SDS011;16089;59.952;10.818;2023-02-01T08:08:20;4.25;;;2.00;;
28988;SDS011;16089;59.952;10.818;2023-02-01T08:10:46;6.07;;;1.90;;
28988;SDS011;16089;59.952;10.818;2023-02-01T08:13:13;5.75;;;2.65;;
28988;SDS011;16089;59.952;10.818;2023-02-01T08:15:39;4.53;;;1.83;;
28988;SDS011;16089;59.952;10.818;2023-02-01T08:18:07;4.55;;;1.90;;
28988;SDS011;16089;59.952;10.818;2023-02-01T08:20:34;4.93;;;1.65;;
28988;SDS011;16089;59.952;10.818;2023-02-01T08:23:06;4.82;;;2.00;;
28988;SDS011;16089;59.952;10.818;2023-02-01T08:25:33;4.60;;;1.85;;
28988;SDS011;16089;59.952;10.818;2023-02-01T08:28:01;3.47;;;1.67;;
28988;SDS011;16089;59.952;10.818;2023-02-01T08:30:29;4.22;;;1.80;;
28988;SDS011;16089;59.952;10.818;2023-02-01T08:32:56;3.35;;;1.75;;
28988;SDS011;16089;59.952;10.818;2023-02-01T08:35:24;4.18;;;1.92;;
28988;SDS011;16089;59.952;10.818;2023-02-01T08:37:50;3.75;;;1.63;;
28988;SDS011;16089;59.952;10.818;2023-02-01T08:40:17;5.15;;;2.05;;
28988;SDS011;16089;59.952;10.818;2023-02-01T08:42:44;6.78;;;1.88;;
28988;SDS011;16089;59.952;10.818;2023-02-01T08:45:29;3.00;;;1.58;;
28988;SDS011;16089;59.952;10.818;2023-02-01T08:50:43;5.15;;;1.70;;
28988;SDS011;16089;59.952;10.818;2023-02-01T08:53:13;3.92;;;1.60;;
28988;SDS011;16089;59.952;10.818;2023-02-01T08:55:39;3.30;;;1.70;;
28988;SDS011;16089;59.952;10.818;2023-02-01T08:58:06;3.13;;;1.58;;
28988;SDS011;16089;59.952;10.818;2023-02-01T09:00:32;3.90;;;1.92;;
28988;SDS011;16089;59.952;10.818;2023-02-01T09:03:21;5.28;;;2.08;;
28988;SDS011;16089;59.952;10.818;2023-02-01T09:06:00;3.72;;;1.48;;
28988;SDS011;16089;59.952;10.818;2023-02-01T09:14:08;6.60;;;1.88;;
28988;SDS011;16089;59.952;10.818;2023-02-01T09:16:34;3.90;;;1.70;;
28988;SDS011;16089;59.952;10.818;2023-02-01T09:19:01;3.92;;;1.67;;
28988;SDS011;16089;59.952;10.818;2023-02-01T09:21:29;4.20;;;2.00;;
28988;SDS011;16089;59.952;10.818;2023-02-01T09:23:55;5.18;;;2.03;;
28988;SDS011;16089;59.952;10.818;2023-02-01T09:26:22;3.42;;;1.80;;
28988;SDS011;16089;59.952;10.818;2023-02-01T09:28:48;4.40;;;2.10;;
28988;SDS011;16089;59.952;10.818;2023-02-01T09:31:14;4.25;;;1.90;;
28988;SDS011;16089;59.952;10.818;2023-02-01T09:33:41;5.05;;;1.65;;
28988;SDS011;16089;59.952;10.818;2023-02-01T09:36:07;4.13;;;1.73;;
28988;SDS011;16089;59.952;10.818;2023-02-01T09:38:35;3.90;;;1.60;;
28988;SDS011;16089;59.952;10.818;2023-02-01T09:41:06;10.07;;;3.63;;
28988;SDS011;16089;59.952;10.818;2023-02-01T09:43:35;10.02;;;3.83;;
28988;SDS011;16089;59.952;10.818;2023-02-01T09:46:09;5.43;;;2.13;;
28988;SDS011;16089;59.952;10.818;2023-02-01T09:48:42;3.17;;;1.50;;
28988;SDS011;16089;59.952;10.818;2023-02-01T09:51:12;5.82;;;3.08;;
28988;SDS011;16089;59.952;10.818;2023-02-01T09:53:41;4.90;;;2.15;;
28988;SDS011;16089;59.952;10.818;2023-02-01T09:56:10;6.90;;;2.85;;
28988;SDS011;16089;59.952;10.818;2023-02-01T09:58:39;8.77;;;3.63;;
28988;SDS011;16089;59.952;10.818;2023-02-01T10:01:09;6.57;;;2.83;;
28988;SDS011;16089;59.952;10.818;2023-02-01T10:03:40;6.10;;;2.67;;
28988;SDS011;16089;59.952;10.818;2023-02-01T10:06:16;5.88;;;2.53;;
28988;SDS011;16089;59.952;10.818;2023-02-01T10:08:56;6.30;;;3.00;;
28988;SDS011;16089;59.952;10.818;2023-02-01T10:11:27;10.00;;;4.82;;
28988;SDS011;16089;59.952;10.818;2023-02-01T10:14:14;9.80;;;4.07;;
28988;SDS011;16089;59.952;10.818;2023-02-01T10:16:43;5.25;;;2.30;;
28988;SDS011;16089;59.952;10.818;2023-02-01T10:19:23;10.27;;;3.67;;
28988;SDS011;16089;59.952;10.818;2023-02-01T10:21:54;7.03;;;3.25;;
28988;SDS011;16089;59.952;10.818;2023-02-01T10:24:36;6.50;;;3.00;;
28988;SDS011;16089;59.952;10.818;2023-02-01T10:27:08;8.27;;;3.30;;
28988;SDS011;16089;59.952;10.818;2023-02-01T10:29:37;9.70;;;3.63;;
28988;SDS011;16089;59.952;10.818;2023-02-01T10:32:07;8.23;;;4.05;;
28988;SDS011;16089;59.952;10.818;2023-02-01T10:34:36;7.20;;;3.25;;
28988;SDS011;16089;59.952;10.818;2023-02-01T10:37:08;5.68;;;3.10;;
28988;SDS011;16089;59.952;10.818;2023-02-01T10:39:38;5.70;;;3.10;;
28988;SDS011;16089;59.952;10.818;2023-02-01T10:42:05;6.38;;;3.03;;
28988;SDS011;16089;59.952;10.818;2023-02-01T10:44:31;6.70;;;3.63;;
28988;SDS011;16089;59.952;10.818;2023-02-01T10:47:01;7.22;;;3.60;;
28988;SDS011;16089;59.952;10.818;2023-02-01T10:49:38;5.82;;;2.83;;
28988;SDS011;16089;59.952;10.818;2023-02-01T10:52:05;10.15;;;3.40;;
28988;SDS011;16089;59.952;10.818;2023-02-01T10:54:48;6.43;;;3.35;;
28988;SDS011;16089;59.952;10.818;2023-02-01T10:57:20;6.30;;;2.67;;
28988;SDS011;16089;59.952;10.818;2023-02-01T10:59:47;8.43;;;4.00;;
28988;SDS011;16089;59.952;10.818;2023-02-01T11:02:16;7.63;;;3.80;;
28988;SDS011;16089;59.952;10.818;2023-02-01T11:04:44;8.80;;;3.63;;
28988;SDS011;16089;59.952;10.818;2023-02-01T11:07:13;9.23;;;3.47;;
28988;SDS011;16089;59.952;10.818;2023-02-01T11:09:42;7.57;;;3.10;;
28988;SDS011;16089;59.952;10.818;2023-02-01T11:12:23;10.80;;;3.08;;
28988;SDS011;16089;59.952;10.818;2023-02-01T11:14:50;6.60;;;3.08;;
28988;SDS011;16089;59.952;10.818;2023-02-01T11:17:21;8.43;;;2.95;;
28988;SDS011;16089;59.952;10.818;2023-02-01T11:19:55;6.50;;;2.63;;
28988;SDS011;16089;59.952;10.818;2023-02-01T11:22:23;4.50;;;2.28;;
28988;SDS011;16089;59.952;10.818;2023-02-01T11:24:50;6.00;;;2.65;;
28988;SDS011;16089;59.952;10.818;2023-02-01T11:27:17;7.05;;;2.40;;
28988;SDS011;16089;59.952;10.818;2023-02-01T11:29:48;5.57;;;2.70;;
28988;SDS011;16089;59.952;10.818;2023-02-01T11:32:16;6.72;;;3.28;;
28988;SDS011;16089;59.952;10.818;2023-02-01T11:34:44;5.88;;;2.70;;
28988;SDS011;16089;59.952;10.818;2023-02-01T11:37:13;7.95;;;3.60;;
28988;SDS011;16089;59.952;10.818;2023-02-01T11:39:40;8.00;;;3.33;;
28988;SDS011;16089;59.952;10.818;2023-02-01T11:42:12;5.95;;;2.75;;
28988;SDS011;16089;59.952;10.818;2023-02-01T11:44:39;6.47;;;2.97;;
28988;SDS011;16089;59.952;10.818;2023-02-01T11:47:19;7.72;;;2.70;;
28988;SDS011;16089;59.952;10.818;2023-02-01T11:49:47;6.97;;;2.83;;
28988;SDS011;16089;59.952;10.818;2023-02-01T11:52:15;12.32;;;3.67;;
28988;SDS011;16089;59.952;10.818;2023-02-01T11:54:54;8.25;;;3.30;;
28988;SDS011;16089;59.952;10.818;2023-02-01T11:57:31;11.30;;;3.20;;
28988;SDS011;16089;59.952;10.818;2023-02-01T12:00:02;8.40;;;3.83;;
28988;SDS011;16089;59.952;10.818;2023-02-01T12:02:49;15.60;;;6.43;;
28988;SDS011;16089;59.952;10.818;2023-02-01T12:05:27;10.80;;;4.65;;
28988;SDS011;16089;59.952;10.818;2023-02-01T12:08:00;7.95;;;3.20;;
28988;SDS011;16089;59.952;10.818;2023-02-01T12:10:32;5.20;;;2.95;;
28988;SDS011;16089;59.952;10.818;2023-02-01T12:13:06;7.40;;;2.83;;
28988;SDS011;16089;59.952;10.818;2023-02-01T12:15:41;7.53;;;2.40;;
28988;SDS011;16089;59.952;10.818;2023-02-01T12:18:22;6.57;;;2.33;;
28988;SDS011;16089;59.952;10.818;2023-02-01T12:21:05;6.32;;;2.75;;
28988;SDS011;16089;59.952;10.818;2023-02-01T12:23:44;7.20;;;2.85;;
28988;SDS011;16089;59.952;10.818;2023-02-01T12:26:20;6.18;;;1.90;;
28988;SDS011;16089;59.952;10.818;2023-02-01T12:28:56;5.88;;;2.00;;
28988;SDS011;16089;59.952;10.818;2023-02-01T12:31:41;5.03;;;2.58;;
28988;SDS011;16089;59.952;10.818;2023-02-01T12:34:15;6.30;;;2.45;;
28988;SDS011;16089;59.952;10.818;2023-02-01T12:36:46;5.00;;;2.13;;
28988;SDS011;16089;59.952;10.818;2023-02-01T12:39:16;7.03;;;2.03;;
28988;SDS011;16089;59.952;10.818;2023-02-01T12:41:49;2.80;;;1.20;;
28988;SDS011;16089;59.952;10.818;2023-02-01T12:44:19;4.22;;;1.83;;
28988;SDS011;16089;59.952;10.818;2023-02-01T12:46:52;2.80;;;1.48;;
28988;SDS011;16089;59.952;10.818;2023-02-01T12:49:21;3.85;;;1.70;;
28988;SDS011;16089;59.952;10.818;2023-02-01T12:51:52;5.80;;;2.17;;
28988;SDS011;16089;59.952;10.818;2023-02-01T12:54:20;4.95;;;1.50;;
28988;SDS011;16089;59.952;10.818;2023-02-01T12:56:48;4.47;;;1.40;;
28988;SDS011;16089;59.952;10.818;2023-02-01T12:59:19;3.03;;;1.42;;
28988;SDS011;16089;59.952;10.818;2023-02-01T13:01:48;4.35;;;1.60;;
28988;SDS011;16089;59.952;10.818;2023-02-01T13:04:19;5.80;;;1.75;;
28988;SDS011;16089;59.952;10.818;2023-02-01T13:06:49;2.67;;;1.20;;
28988;SDS011;16089;59.952;10.818;2023-02-01T13:09:19;4.07;;;1.52;;
28988;SDS011;16089;59.952;10.818;2023-02-01T13:11:48;3.22;;;1.38;;
28988;SDS011;16089;59.952;10.818;2023-02-01T13:14:19;4.43;;;1.38;;
28988;SDS011;16089;59.952;10.818;2023-02-01T13:16:49;3.13;;;1.05;;
28988;SDS011;16089;59.952;10.818;2023-02-01T13:19:17;3.30;;;1.25;;
28988;SDS011;16089;59.952;10.818;2023-02-01T13:21:45;2.67;;;1.00;;
28988;SDS011;16089;59.952;10.818;2023-02-01T13:24:18;3.42;;;1.00;;
28988;SDS011;16089;59.952;10.818;2023-02-01T13:26:48;2.42;;;1.20;;
28988;SDS011;16089;59.952;10.818;2023-02-01T13:29:14;2.10;;;1.00;;
28988;SDS011;16089;59.952;10.818;2023-02-01T13:31:49;3.35;;;1.00;;
28988;SDS011;16089;59.952;10.818;2023-02-01T13:37:20;1.92;;;0.98;;
28988;SDS011;16089;59.952;10.818;2023-02-01T13:39:54;3.30;;;1.20;;
28988;SDS011;16089;59.952;10.818;2023-02-01T13:42:24;3.50;;;1.10;;
28988;SDS011;16089;59.952;10.818;2023-02-01T13:44:55;4.35;;;1.27;;
28988;SDS011;16089;59.952;10.818;2023-02-01T13:47:24;3.95;;;1.10;;
28988;SDS011;16089;59.952;10.818;2023-02-01T13:49:52;3.13;;;1.10;;
28988;SDS011;16089;59.952;10.818;2023-02-01T13:52:27;3.42;;;1.08;;
28988;SDS011;16089;59.952;10.818;2023-02-01T13:55:13;3.22;;;1.30;;
28988;SDS011;16089;59.952;10.818;2023-02-01T13:57:41;2.45;;;1.10;;
28988;SDS011;16089;59.952;10.818;2023-02-01T14:00:22;2.70;;;1.10;;
28988;SDS011;16089;59.952;10.818;2023-02-01T14:02:50;2.95;;;1.13;;
28988;SDS011;16089;59.952;10.818;2023-02-01T14:08:12;3.08;;;1.02;;
28988;SDS011;16089;59.952;10.818;2023-02-01T14:10:50;3.53;;;1.20;;
28988;SDS011;16089;59.952;10.818;2023-02-01T14:13:25;2.47;;;1.00;;
28988;SDS011;16089;59.952;10.818;2023-02-01T14:21:20;3.40;;;1.20;;
28988;SDS011;16089;59.952;10.818;2023-02-01T14:23:54;3.58;;;1.00;;
28988;SDS011;16089;59.952;10.818;2023-02-01T14:26:23;3.08;;;1.30;;
28988;SDS011;16089;59.952;10.818;2023-02-01T14:28:51;2.40;;;1.00;;
28988;SDS011;16089;59.952;10.818;2023-02-01T14:31:27;2.13;;;0.80;;
28988;SDS011;16089;59.952;10.818;2023-02-01T14:33:55;2.92;;;1.02;;
28988;SDS011;16089;59.952;10.818;2023-02-01T14:36:23;3.45;;;1.00;;
28988;SDS011;16089;59.952;10.818;2023-02-01T14:38:49;2.92;;;1.02;;
28988;SDS011;16089;59.952;10.818;2023-02-01T14:41:23;3.20;;;1.10;;
28988;SDS011;16089;59.952;10.818;2023-02-01T14:43:51;1.73;;;0.75;;
28988;SDS011;16089;59.952;10.818;2023-02-01T14:46:17;3.28;;;1.30;;
28988;SDS011;16089;59.952;10.818;2023-02-01T14:48:45;2.53;;;0.90;;
28988;SDS011;16089;59.952;10.818;2023-02-01T14:51:13;2.35;;;0.82;;
28988;SDS011;16089;59.952;10.818;2023-02-01T14:53:40;3.05;;;1.17;;
28988;SDS011;16089;59.952;10.818;2023-02-01T14:56:09;3.22;;;1.20;;
28988;SDS011;16089;59.952;10.818;2023-02-01T14:58:41;2.45;;;1.00;;
28988;SDS011;16089;59.952;10.818;2023-02-01T15:01:20;3.45;;;0.93;;
28988;SDS011;16089;59.952;10.818;2023-02-01T15:03:48;4.40;;;0.90;;
28988;SDS011;16089;59.952;10.818;2023-02-01T15:06:30;4.78;;;1.00;;
28988;SDS011;16089;59.952;10.818;2023-02-01T15:08:58;2.67;;;0.90;;